sensor_id;sensor_type;location;lat;lon;timestamp;temperature;humidity
67131;HTU21D;54051;53.464;49.532;2023-02-17T00:00:24;-3.33;79.39
67131;HTU21D;54051;53.464;49.532;2023-02-17T00:02:54;-3.47;79.56
67131;HTU21D;54051;53.464;49.532;2023-02-17T00:05:21;-3.55;80.09
67131;HTU21D;54051;53.464;49.532;2023-02-17T00:07:47;-3.58;79.85
67131;HTU21D;54051;53.464;49.532;2023-02-17T00:10:13;-3.72;79.91
67131;HTU21D;54051;53.464;49.532;2023-02-17T00:12:39;-3.74;80.11
67131;HTU21D;54051;53.464;49.532;2023-02-17T00:15:05;-3.76;79.63
67131;HTU21D;54051;53.464;49.532;2023-02-17T00:17:31;-3.81;79.52
67131;HTU21D;54051;53.464;49.532;2023-02-17T00:19:57;-3.80;78.87
67131;HTU21D;54051;53.464;49.532;2023-02-17T00:22:24;-3.92;77.66
67131;HTU21D;54051;53.464;49.532;2023-02-17T00:24:50;-4.02;78.40
67131;HTU21D;54051;53.464;49.532;2023-02-17T00:27:16;-4.07;78.12
67131;HTU21D;54051;53.464;49.532;2023-02-17T00:29:42;-4.16;78.29
67131;HTU21D;54051;53.464;49.532;2023-02-17T00:32:08;-4.20;77.66
67131;HTU21D;54051;53.464;49.532;2023-02-17T00:34:35;-4.20;78.35
67131;HTU21D;54051;53.464;49.532;2023-02-17T00:37:02;-4.23;77.95
67131;HTU21D;54051;53.464;49.532;2023-02-17T00:39:28;-4.22;77.89
67131;HTU21D;54051;53.464;49.532;2023-02-17T00:41:55;-4.29;77.63
67131;HTU21D;54051;53.464;49.532;2023-02-17T00:44:22;-4.39;78.18
67131;HTU21D;54051;53.464;49.532;2023-02-17T00:46:48;-4.40;78.19
67131;HTU21D;54051;53.464;49.532;2023-02-17T00:49:15;-4.37;78.28
67131;HTU21D;54051;53.464;49.532;2023-02-17T00:51:42;-4.39;78.01
67131;HTU21D;54051;53.464;49.532;2023-02-17T00:54:08;-4.43;78.02
67131;HTU21D;54051;53.464;49.532;2023-02-17T00:56:34;-4.46;77.82
67131;HTU21D;54051;53.464;49.532;2023-02-17T00:59:00;-4.49;77.40
67131;HTU21D;54051;53.464;49.532;2023-02-17T01:01:26;-4.49;78.00
67131;HTU21D;54051;53.464;49.532;2023-02-17T01:03:52;-4.49;77.66
67131;HTU21D;54051;53.464;49.532;2023-02-17T01:06:22;-4.57;78.38
67131;HTU21D;54051;53.464;49.532;2023-02-17T01:08:49;-4.60;78.96
67131;HTU21D;54051;53.464;49.532;2023-02-17T01:11:19;-4.63;78.89
67131;HTU21D;54051;53.464;49.532;2023-02-17T01:13:45;-4.69;79.52
67131;HTU21D;54051;53.464;49.532;2023-02-17T01:16:22;-4.72;79.97
67131;HTU21D;54051;53.464;49.532;2023-02-17T01:18:49;-4.80;79.89
67131;HTU21D;54051;53.464;49.532;2023-02-17T01:21:22;-4.84;80.58
67131;HTU21D;54051;53.464;49.532;2023-02-17T01:23:49;-4.87;80.28
67131;HTU21D;54051;53.464;49.532;2023-02-17T01:26:16;-4.82;80.07
67131;HTU21D;54051;53.464;49.532;2023-02-17T01:28:43;-4.93;79.85
67131;HTU21D;54051;53.464;49.532;2023-02-17T01:31:09;-4.96;80.11
67131;HTU21D;54051;53.464;49.532;2023-02-17T01:33:35;-4.88;80.02
67131;HTU21D;54051;53.464;49.532;2023-02-17T01:36:02;-4.93;79.46
67131;HTU21D;54051;53.464;49.532;2023-02-17T01:38:29;-4.95;79.56
67131;HTU21D;54051;53.464;49.532;2023-02-17T01:40:56;-4.95;79.57
67131;HTU21D;54051;53.464;49.532;2023-02-17T01:43:22;-4.93;78.83
67131;HTU21D;54051;53.464;49.532;2023-02-17T01:45:52;-4.93;79.16
67131;HTU21D;54051;53.464;49.532;2023-02-17T01:48:20;-4.98;78.12
67131;HTU21D;54051;53.464;49.532;2023-02-17T01:50:51;-5.03;78.58
67131;HTU21D;54051;53.464;49.532;2023-02-17T01:53:19;-5.01;78.55
67131;HTU21D;54051;53.464;49.532;2023-02-17T01:55:46;-5.00;78.37
67131;HTU21D;54051;53.464;49.532;2023-02-17T01:58:14;-5.01;78.10
67131;HTU21D;54051;53.464;49.532;2023-02-17T02:00:41;-5.01;78.03
67131;HTU21D;54051;53.464;49.532;2023-02-17T02:03:08;-4.97;78.06
67131;HTU21D;54051;53.464;49.532;2023-02-17T02:05:36;-4.99;78.34
67131;HTU21D;54051;53.464;49.532;2023-02-17T02:08:02;-4.88;78.32
67131;HTU21D;54051;53.464;49.532;2023-02-17T02:10:28;-4.91;77.49
67131;HTU21D;54051;53.464;49.532;2023-02-17T02:12:54;-5.03;77.84
67131;HTU21D;54051;53.464;49.532;2023-02-17T02:15:21;-5.09;77.90
67131;HTU21D;54051;53.464;49.532;2023-02-17T02:23:08;-5.16;78.33
67131;HTU21D;54051;53.464;49.532;2023-02-17T02:41:06;-5.01;77.24
67131;HTU21D;54051;53.464;49.532;2023-02-17T02:43:34;-5.08;77.57
67131;HTU21D;54051;53.464;49.532;2023-02-17T02:46:00;-5.09;77.75
67131;HTU21D;54051;53.464;49.532;2023-02-17T02:48:26;-5.11;77.67
67131;HTU21D;54051;53.464;49.532;2023-02-17T02:51:02;-5.10;77.29
67131;HTU21D;54051;53.464;49.532;2023-02-17T02:53:45;-5.10;77.44
67131;HTU21D;54051;53.464;49.532;2023-02-17T02:58:59;-5.00;77.14
67131;HTU21D;54051;53.464;49.532;2023-02-17T03:04:22;-5.05;78.00
67131;HTU21D;54051;53.464;49.532;2023-02-17T03:06:53;-5.07;77.89
67131;HTU21D;54051;53.464;49.532;2023-02-17T03:09:24;-5.10;78.34
67131;HTU21D;54051;53.464;49.532;2023-02-17T03:11:51;-5.01;78.17
67131;HTU21D;54051;53.464;49.532;2023-02-17T03:14:18;-5.00;78.34
67131;HTU21D;54051;53.464;49.532;2023-02-17T03:16:45;-4.97;78.33
67131;HTU21D;54051;53.464;49.532;2023-02-17T03:19:11;-4.87;77.89
67131;HTU21D;54051;53.464;49.532;2023-02-17T03:24:13;-4.85;77.46
67131;HTU21D;54051;53.464;49.532;2023-02-17T03:26:39;-4.78;76.93
67131;HTU21D;54051;53.464;49.532;2023-02-17T03:29:06;-4.76;76.99
67131;HTU21D;54051;53.464;49.532;2023-02-17T03:31:32;-4.69;76.66
67131;HTU21D;54051;53.464;49.532;2023-02-17T03:33:58;-4.70;76.64
67131;HTU21D;54051;53.464;49.532;2023-02-17T03:36:25;-4.68;76.23
67131;HTU21D;54051;53.464;49.532;2023-02-17T03:38:51;-4.69;76.60
67131;HTU21D;54051;53.464;49.532;2023-02-17T03:41:17;-4.67;76.37
67131;HTU21D;54051;53.464;49.532;2023-02-17T03:43:43;-4.65;76.37
67131;HTU21D;54051;53.464;49.532;2023-02-17T03:46:10;-4.67;76.57
67131;HTU21D;54051;53.464;49.532;2023-02-17T03:48:36;-4.65;76.62
67131;HTU21D;54051;53.464;49.532;2023-02-17T03:51:12;-4.64;76.67
67131;HTU21D;54051;53.464;49.532;2023-02-17T03:53:39;-4.66;76.57
67131;HTU21D;54051;53.464;49.532;2023-02-17T03:56:05;-4.65;76.84
67131;HTU21D;54051;53.464;49.532;2023-02-17T03:58:31;-4.69;76.82
67131;HTU21D;54051;53.464;49.532;2023-02-17T04:00:57;-4.66;77.03
67131;HTU21D;54051;53.464;49.532;2023-02-17T04:03:23;-4.63;76.60
67131;HTU21D;54051;53.464;49.532;2023-02-17T04:05:49;-4.61;76.41
67131;HTU21D;54051;53.464;49.532;2023-02-17T04:08:15;-4.64;76.22
67131;HTU21D;54051;53.464;49.532;2023-02-17T04:10:42;-4.58;75.96
67131;HTU21D;54051;53.464;49.532;2023-02-17T04:13:09;-4.53;75.83
67131;HTU21D;54051;53.464;49.532;2023-02-17T04:15:35;-4.53;75.70
67131;HTU21D;54051;53.464;49.532;2023-02-17T04:18:01;-4.49;75.09
67131;HTU21D;54051;53.464;49.532;2023-02-17T04:20:27;-4.46;75.16
67131;HTU21D;54051;53.464;49.532;2023-02-17T04:22:54;-4.39;74.44
67131;HTU21D;54051;53.464;49.532;2023-02-17T04:25:20;-4.31;74.19
67131;HTU21D;54051;53.464;49.532;2023-02-17T04:27:46;-4.26;73.51
67131;HTU21D;54051;53.464;49.532;2023-02-17T04:30:12;-4.17;73.32
67131;HTU21D;54051;53.464;49.532;2023-02-17T04:32:38;-4.14;72.84
67131;HTU21D;54051;53.464;49.532;2023-02-17T04:35:04;-4.05;72.64
67131;HTU21D;54051;53.464;49.532;2023-02-17T04:37:30;-3.96;71.57
67131;HTU21D;54051;53.464;49.532;2023-02-17T04:39:56;-3.91;71.72
67131;HTU21D;54051;53.464;49.532;2023-02-17T04:42:22;-3.79;71.28
67131;HTU21D;54051;53.464;49.532;2023-02-17T04:44:48;-3.55;70.46
67131;HTU21D;54051;53.464;49.532;2023-02-17T04:47:14;-3.43;69.91
67131;HTU21D;54051;53.464;49.532;2023-02-17T04:49:40;-3.31;68.97
67131;HTU21D;54051;53.464;49.532;2023-02-17T04:52:06;-3.25;69.16
67131;HTU21D;54051;53.464;49.532;2023-02-17T04:54:33;-3.06;68.45
67131;HTU21D;54051;53.464;49.532;2023-02-17T04:56:59;-2.93;67.81
67131;HTU21D;54051;53.464;49.532;2023-02-17T04:59:25;-2.79;67.04
67131;HTU21D;54051;53.464;49.532;2023-02-17T05:01:51;-2.59;66.44
67131;HTU21D;54051;53.464;49.532;2023-02-17T05:04:17;-2.43;65.67
67131;HTU21D;54051;53.464;49.532;2023-02-17T05:06:43;-2.33;65.00
67131;HTU21D;54051;53.464;49.532;2023-02-17T05:09:09;-2.33;64.90
67131;HTU21D;54051;53.464;49.532;2023-02-17T05:11:35;-2.18;64.13
67131;HTU21D;54051;53.464;49.532;2023-02-17T05:14:01;-2.03;63.82
67131;HTU21D;54051;53.464;49.532;2023-02-17T05:16:27;-1.94;63.04
67131;HTU21D;54051;53.464;49.532;2023-02-17T05:18:53;-1.98;63.11
67131;HTU21D;54051;53.464;49.532;2023-02-17T05:21:19;-1.87;63.27
67131;HTU21D;54051;53.464;49.532;2023-02-17T05:23:45;-1.75;61.55
67131;HTU21D;54051;53.464;49.532;2023-02-17T05:26:11;-1.77;61.33
67131;HTU21D;54051;53.464;49.532;2023-02-17T05:28:37;-1.64;61.79
67131;HTU21D;54051;53.464;49.532;2023-02-17T05:31:04;-1.68;61.89
67131;HTU21D;54051;53.464;49.532;2023-02-17T05:33:30;-1.25;61.44
67131;HTU21D;54051;53.464;49.532;2023-02-17T05:35:59;0.14;56.45
67131;HTU21D;54051;53.464;49.532;2023-02-17T05:38:25;1.34;52.63
67131;HTU21D;54051;53.464;49.532;2023-02-17T05:40:51;2.31;49.35
67131;HTU21D;54051;53.464;49.532;2023-02-17T05:43:17;3.35;46.78
67131;HTU21D;54051;53.464;49.532;2023-02-17T05:45:44;4.00;44.09
67131;HTU21D;54051;53.464;49.532;2023-02-17T05:48:10;4.06;44.02
67131;HTU21D;54051;53.464;49.532;2023-02-17T05:50:36;4.49;43.55
67131;HTU21D;54051;53.464;49.532;2023-02-17T05:53:02;5.02;41.94
67131;HTU21D;54051;53.464;49.532;2023-02-17T05:55:28;5.25;40.88
67131;HTU21D;54051;53.464;49.532;2023-02-17T05:57:54;6.15;39.36
67131;HTU21D;54051;53.464;49.532;2023-02-17T06:00:20;6.34;38.46
67131;HTU21D;54051;53.464;49.532;2023-02-17T06:02:46;6.52;37.56
67131;HTU21D;54051;53.464;49.532;2023-02-17T06:05:12;6.48;37.37
67131;HTU21D;54051;53.464;49.532;2023-02-17T06:07:38;6.66;38.17
67131;HTU21D;54051;53.464;49.532;2023-02-17T06:10:04;7.26;36.36
67131;HTU21D;54051;53.464;49.532;2023-02-17T06:12:31;8.22;34.15
67131;HTU21D;54051;53.464;49.532;2023-02-17T06:14:57;8.39;33.88
67131;HTU21D;54051;53.464;49.532;2023-02-17T06:17:23;7.38;34.86
67131;HTU21D;54051;53.464;49.532;2023-02-17T06:19:49;6.55;36.56
67131;HTU21D;54051;53.464;49.532;2023-02-17T06:22:15;6.59;37.56
67131;HTU21D;54051;53.464;49.532;2023-02-17T06:24:41;7.17;35.76
67131;HTU21D;54051;53.464;49.532;2023-02-17T06:27:07;8.17;34.12
67131;HTU21D;54051;53.464;49.532;2023-02-17T06:29:33;8.43;31.68
67131;HTU21D;54051;53.464;49.532;2023-02-17T06:32:00;8.67;31.10
67131;HTU21D;54051;53.464;49.532;2023-02-17T06:34:26;8.65;31.39
67131;HTU21D;54051;53.464;49.532;2023-02-17T06:36:52;8.48;29.89
67131;HTU21D;54051;53.464;49.532;2023-02-17T06:39:18;10.00;27.49
67131;HTU21D;54051;53.464;49.532;2023-02-17T06:41:44;9.35;28.45
67131;HTU21D;54051;53.464;49.532;2023-02-17T06:44:10;8.22;30.64
67131;HTU21D;54051;53.464;49.532;2023-02-17T06:46:36;6.72;33.77
67131;HTU21D;54051;53.464;49.532;2023-02-17T06:49:02;4.83;38.59
67131;HTU21D;54051;53.464;49.532;2023-02-17T06:51:29;3.93;41.48
67131;HTU21D;54051;53.464;49.532;2023-02-17T06:53:55;3.46;43.05
67131;HTU21D;54051;53.464;49.532;2023-02-17T06:56:21;3.57;42.85
67131;HTU21D;54051;53.464;49.532;2023-02-17T06:58:47;3.55;42.51
67131;HTU21D;54051;53.464;49.532;2023-02-17T07:01:18;3.58;41.90
67131;HTU21D;54051;53.464;49.532;2023-02-17T07:03:44;3.19;43.78
67131;HTU21D;54051;53.464;49.532;2023-02-17T07:06:11;3.04;44.06
67131;HTU21D;54051;53.464;49.532;2023-02-17T07:08:37;3.02;42.78
67131;HTU21D;54051;53.464;49.532;2023-02-17T07:11:04;2.69;43.78
67131;HTU21D;54051;53.464;49.532;2023-02-17T07:13:30;2.37;44.30
67131;HTU21D;54051;53.464;49.532;2023-02-17T07:15:56;2.73;45.49
67131;HTU21D;54051;53.464;49.532;2023-02-17T07:18:22;3.10;43.13
67131;HTU21D;54051;53.464;49.532;2023-02-17T07:20:48;2.89;44.04
67131;HTU21D;54051;53.464;49.532;2023-02-17T07:23:14;3.67;40.78
67131;HTU21D;54051;53.464;49.532;2023-02-17T07:25:40;3.70;40.88
67131;HTU21D;54051;53.464;49.532;2023-02-17T07:28:07;4.78;38.67
67131;HTU21D;54051;53.464;49.532;2023-02-17T07:30:36;6.37;35.28
67131;HTU21D;54051;53.464;49.532;2023-02-17T07:33:02;7.88;31.42
67131;HTU21D;54051;53.464;49.532;2023-02-17T07:35:28;7.97;31.58
67131;HTU21D;54051;53.464;49.532;2023-02-17T07:37:56;8.83;30.37
67131;HTU21D;54051;53.464;49.532;2023-02-17T07:40:22;9.55;28.43
67131;HTU21D;54051;53.464;49.532;2023-02-17T07:42:48;10.21;27.86
67131;HTU21D;54051;53.464;49.532;2023-02-17T07:45:14;10.67;26.14
67131;HTU21D;54051;53.464;49.532;2023-02-17T07:47:40;10.54;26.75
67131;HTU21D;54051;53.464;49.532;2023-02-17T07:50:06;9.98;27.65
67131;HTU21D;54051;53.464;49.532;2023-02-17T07:52:32;8.65;30.42
67131;HTU21D;54051;53.464;49.532;2023-02-17T07:54:58;6.04;35.95
67131;HTU21D;54051;53.464;49.532;2023-02-17T07:57:24;5.41;37.72
67131;HTU21D;54051;53.464;49.532;2023-02-17T07:59:50;4.98;39.32
67131;HTU21D;54051;53.464;49.532;2023-02-17T08:02:17;5.94;37.12
67131;HTU21D;54051;53.464;49.532;2023-02-17T08:04:43;6.30;36.68
67131;HTU21D;54051;53.464;49.532;2023-02-17T08:07:09;5.28;39.32
67131;HTU21D;54051;53.464;49.532;2023-02-17T08:09:35;4.74;41.15
67131;HTU21D;54051;53.464;49.532;2023-02-17T08:12:21;3.82;44.09
67131;HTU21D;54051;53.464;49.532;2023-02-17T08:15:07;2.76;46.57
67131;HTU21D;54051;53.464;49.532;2023-02-17T08:17:34;2.13;50.06
67131;HTU21D;54051;53.464;49.532;2023-02-17T08:20:00;1.94;49.95
67131;HTU21D;54051;53.464;49.532;2023-02-17T08:22:26;1.87;50.45
67131;HTU21D;54051;53.464;49.532;2023-02-17T08:24:52;1.94;50.75
67131;HTU21D;54051;53.464;49.532;2023-02-17T08:27:18;2.21;49.22
67131;HTU21D;54051;53.464;49.532;2023-02-17T08:29:44;2.88;46.51
67131;HTU21D;54051;53.464;49.532;2023-02-17T08:32:12;2.12;48.08
67131;HTU21D;54051;53.464;49.532;2023-02-17T08:34:38;2.61;48.61
67131;HTU21D;54051;53.464;49.532;2023-02-17T08:37:04;3.77;44.62
67131;HTU21D;54051;53.464;49.532;2023-02-17T08:39:31;4.65;42.36
67131;HTU21D;54051;53.464;49.532;2023-02-17T08:41:58;6.40;38.66
67131;HTU21D;54051;53.464;49.532;2023-02-17T08:44:24;6.89;37.14
67131;HTU21D;54051;53.464;49.532;2023-02-17T08:46:50;6.97;37.06
67131;HTU21D;54051;53.464;49.532;2023-02-17T08:49:18;6.50;36.81
67131;HTU21D;54051;53.464;49.532;2023-02-17T08:51:44;4.84;41.52
67131;HTU21D;54051;53.464;49.532;2023-02-17T08:54:10;4.35;43.25
67131;HTU21D;54051;53.464;49.532;2023-02-17T08:56:36;5.17;41.46
67131;HTU21D;54051;53.464;49.532;2023-02-17T08:59:03;5.67;40.23
67131;HTU21D;54051;53.464;49.532;2023-02-17T09:01:30;4.72;43.55
67131;HTU21D;54051;53.464;49.532;2023-02-17T09:03:56;4.75;43.48
67131;HTU21D;54051;53.464;49.532;2023-02-17T09:06:23;4.56;44.32
67131;HTU21D;54051;53.464;49.532;2023-02-17T09:08:49;4.74;42.87
67131;HTU21D;54051;53.464;49.532;2023-02-17T09:11:16;3.91;46.94
67131;HTU21D;54051;53.464;49.532;2023-02-17T09:13:44;3.42;49.60
67131;HTU21D;54051;53.464;49.532;2023-02-17T09:16:10;3.24;50.49
67131;HTU21D;54051;53.464;49.532;2023-02-17T09:18:36;3.30;49.57
67131;HTU21D;54051;53.464;49.532;2023-02-17T09:21:06;3.53;50.16
67131;HTU21D;54051;53.464;49.532;2023-02-17T09:23:32;3.83;49.73
67131;HTU21D;54051;53.464;49.532;2023-02-17T09:26:02;4.01;47.59
67131;HTU21D;54051;53.464;49.532;2023-02-17T09:28:30;3.74;50.10
67131;HTU21D;54051;53.464;49.532;2023-02-17T09:30:56;3.08;52.81
67131;HTU21D;54051;53.464;49.532;2023-02-17T09:33:22;2.76;53.92
67131;HTU21D;54051;53.464;49.532;2023-02-17T09:35:48;2.50;55.24
67131;HTU21D;54051;53.464;49.532;2023-02-17T09:38:15;2.44;54.86
67131;HTU21D;54051;53.464;49.532;2023-02-17T09:40:42;2.58;55.45
67131;HTU21D;54051;53.464;49.532;2023-02-17T09:43:14;2.47;55.49
67131;HTU21D;54051;53.464;49.532;2023-02-17T09:45:41;2.13;55.80
67131;HTU21D;54051;53.464;49.532;2023-02-17T09:48:09;1.71;57.04
67131;HTU21D;54051;53.464;49.532;2023-02-17T09:50:48;1.45;58.37
67131;HTU21D;54051;53.464;49.532;2023-02-17T09:55:49;1.29;58.30
67131;HTU21D;54051;53.464;49.532;2023-02-17T09:58:17;1.42;57.33
67131;HTU21D;54051;53.464;49.532;2023-02-17T10:00:49;1.03;58.65
67131;HTU21D;54051;53.464;49.532;2023-02-17T10:03:22;1.18;58.25
67131;HTU21D;54051;53.464;49.532;2023-02-17T10:08:26;1.63;57.10
67131;HTU21D;54051;53.464;49.532;2023-02-17T10:10:53;1.72;58.06
67131;HTU21D;54051;53.464;49.532;2023-02-17T10:13:21;1.68;58.15
67131;HTU21D;54051;53.464;49.532;2023-02-17T10:15:49;1.20;59.61
67131;HTU21D;54051;53.464;49.532;2023-02-17T10:18:18;0.95;60.97
67131;HTU21D;54051;53.464;49.532;2023-02-17T10:21:04;0.90;61.24
67131;HTU21D;54051;53.464;49.532;2023-02-17T10:23:32;0.58;62.73
67131;HTU21D;54051;53.464;49.532;2023-02-17T10:31:01;1.14;57.67
67131;HTU21D;54051;53.464;49.532;2023-02-17T10:35:58;1.25;56.13
67131;HTU21D;54051;53.464;49.532;2023-02-17T10:40:56;1.32;57.10
67131;HTU21D;54051;53.464;49.532;2023-02-17T10:43:24;1.11;58.13
67131;HTU21D;54051;53.464;49.532;2023-02-17T10:45:51;1.05;58.90
67131;HTU21D;54051;53.464;49.532;2023-02-17T10:51:10;0.87;60.49
67131;HTU21D;54051;53.464;49.532;2023-02-17T10:53:37;0.97;60.55
67131;HTU21D;54051;53.464;49.532;2023-02-17T10:56:11;0.79;60.31
67131;HTU21D;54051;53.464;49.532;2023-02-17T10:58:47;0.65;60.33
67131;HTU21D;54051;53.464;49.532;2023-02-17T11:01:15;0.69;60.35
67131;HTU21D;54051;53.464;49.532;2023-02-17T11:03:41;0.59;59.59
67131;HTU21D;54051;53.464;49.532;2023-02-17T11:11:16;0.08;61.92
67131;HTU21D;54051;53.464;49.532;2023-02-17T11:13:45;0.13;62.22
67131;HTU21D;54051;53.464;49.532;2023-02-17T11:16:24;0.14;63.35
67131;HTU21D;54051;53.464;49.532;2023-02-17T11:18:51;0.29;62.66
67131;HTU21D;54051;53.464;49.532;2023-02-17T11:21:17;0.35;62.13
67131;HTU21D;54051;53.464;49.532;2023-02-17T11:23:48;0.17;63.56
67131;HTU21D;54051;53.464;49.532;2023-02-17T11:26:17;0.20;62.82
67131;HTU21D;54051;53.464;49.532;2023-02-17T11:28:46;0.19;62.57
67131;HTU21D;54051;53.464;49.532;2023-02-17T11:31:24;0.13;62.51
67131;HTU21D;54051;53.464;49.532;2023-02-17T11:33:51;-0.17;64.25
67131;HTU21D;54051;53.464;49.532;2023-02-17T11:36:21;-0.22;65.32
67131;HTU21D;54051;53.464;49.532;2023-02-17T11:38:49;-0.14;64.80
67131;HTU21D;54051;53.464;49.532;2023-02-17T11:41:15;-0.03;64.76
67131;HTU21D;54051;53.464;49.532;2023-02-17T11:43:52;-0.07;65.35
67131;HTU21D;54051;53.464;49.532;2023-02-17T11:46:23;-0.13;65.62
67131;HTU21D;54051;53.464;49.532;2023-02-17T11:56:33;-0.35;66.73
67131;HTU21D;54051;53.464;49.532;2023-02-17T12:04:29;-0.43;65.79
67131;HTU21D;54051;53.464;49.532;2023-02-17T12:22:25;-0.28;63.25
67131;HTU21D;54051;53.464;49.532;2023-02-17T12:35:13;-0.65;63.82
67131;HTU21D;54051;53.464;49.532;2023-02-17T12:37:54;-0.66;64.25
67131;HTU21D;54051;53.464;49.532;2023-02-17T12:42:52;-0.89;64.71
67131;HTU21D;54051;53.464;49.532;2023-02-17T12:45:20;-0.85;64.53
67131;HTU21D;54051;53.464;49.532;2023-02-17T12:50:36;-0.95;64.49
67131;HTU21D;54051;53.464;49.532;2023-02-17T12:53:06;-0.90;64.44
67131;HTU21D;54051;53.464;49.532;2023-02-17T12:55:39;-1.06;64.65
67131;HTU21D;54051;53.464;49.532;2023-02-17T12:58:17;-1.15;64.80
67131;HTU21D;54051;53.464;49.532;2023-02-17T13:00:48;-1.21;65.45
67131;HTU21D;54051;53.464;49.532;2023-02-17T13:03:15;-1.27;65.29
67131;HTU21D;54051;53.464;49.532;2023-02-17T13:06:16;-1.36;65.46
67131;HTU21D;54051;53.464;49.532;2023-02-17T13:11:29;-1.33;64.89
67131;HTU21D;54051;53.464;49.532;2023-02-17T13:13:56;-1.43;65.77
67131;HTU21D;54051;53.464;49.532;2023-02-17T13:16:23;-1.45;65.72
67131;HTU21D;54051;53.464;49.532;2023-02-17T13:18:50;-1.45;65.35
67131;HTU21D;54051;53.464;49.532;2023-02-17T13:26:39;-1.63;65.43
67131;HTU21D;54051;53.464;49.532;2023-02-17T13:36:50;-1.85;66.00
67131;HTU21D;54051;53.464;49.532;2023-02-17T13:41:52;-2.22;66.67
67131;HTU21D;54051;53.464;49.532;2023-02-17T13:52:53;-2.78;68.49
67131;HTU21D;54051;53.464;49.532;2023-02-17T13:55:20;-2.91;68.88
67131;HTU21D;54051;53.464;49.532;2023-02-17T13:57:52;-3.03;69.82
67131;HTU21D;54051;53.464;49.532;2023-02-17T14:00:21;-3.19;70.82
67131;HTU21D;54051;53.464;49.532;2023-02-17T14:02:57;-3.23;71.01
67131;HTU21D;54051;53.464;49.532;2023-02-17T14:05:39;-3.38;72.30
67131;HTU21D;54051;53.464;49.532;2023-02-17T14:08:26;-3.43;73.16
67131;HTU21D;54051;53.464;49.532;2023-02-17T14:10:53;-3.45;73.57
67131;HTU21D;54051;53.464;49.532;2023-02-17T14:13:19;-3.46;74.04
67131;HTU21D;54051;53.464;49.532;2023-02-17T14:15:48;-3.47;74.20
67131;HTU21D;54051;53.464;49.532;2023-02-17T14:18:15;-3.51;74.80
67131;HTU21D;54051;53.464;49.532;2023-02-17T14:20:58;-3.45;74.96
67131;HTU21D;54051;53.464;49.532;2023-02-17T14:23:24;-3.50;75.51
67131;HTU21D;54051;53.464;49.532;2023-02-17T14:25:50;-3.47;75.95
67131;HTU21D;54051;53.464;49.532;2023-02-17T14:30:43;-3.34;75.86
67131;HTU21D;54051;53.464;49.532;2023-02-17T14:35:48;-3.34;76.25
67131;HTU21D;54051;53.464;49.532;2023-02-17T14:38:19;-3.33;76.18
67131;HTU21D;54051;53.464;49.532;2023-02-17T14:40:46;-3.31;76.30
67131;HTU21D;54051;53.464;49.532;2023-02-17T14:43:12;-3.36;76.80
67131;HTU21D;54051;53.464;49.532;2023-02-17T14:45:38;-3.38;77.02
67131;HTU21D;54051;53.464;49.532;2023-02-17T14:48:04;-3.35;77.13
67131;HTU21D;54051;53.464;49.532;2023-02-17T14:50:31;-3.27;76.70
67131;HTU21D;54051;53.464;49.532;2023-02-17T14:52:57;-3.25;76.84
67131;HTU21D;54051;53.464;49.532;2023-02-17T14:57:56;-3.16;76.67
67131;HTU21D;54051;53.464;49.532;2023-02-17T15:00:23;-3.10;76.45
67131;HTU21D;54051;53.464;49.532;2023-02-17T15:02:49;-3.04;76.28
67131;HTU21D;54051;53.464;49.532;2023-02-17T15:05:16;-3.08;76.60
67131;HTU21D;54051;53.464;49.532;2023-02-17T15:07:42;-3.08;76.56
67131;HTU21D;54051;53.464;49.532;2023-02-17T15:10:18;-3.06;76.70
67131;HTU21D;54051;53.464;49.532;2023-02-17T15:12:45;-3.00;76.63
67131;HTU21D;54051;53.464;49.532;2023-02-17T15:15:12;-3.03;76.74
67131;HTU21D;54051;53.464;49.532;2023-02-17T15:17:39;-3.00;77.24
67131;HTU21D;54051;53.464;49.532;2023-02-17T15:20:05;-3.00;77.15
67131;HTU21D;54051;53.464;49.532;2023-02-17T15:22:31;-2.95;76.96
67131;HTU21D;54051;53.464;49.532;2023-02-17T15:24:57;-2.98;77.07
67131;HTU21D;54051;53.464;49.532;2023-02-17T15:27:23;-3.00;77.50
67131;HTU21D;54051;53.464;49.532;2023-02-17T15:29:49;-2.94;77.21
67131;HTU21D;54051;53.464;49.532;2023-02-17T15:32:16;-2.91;77.18
67131;HTU21D;54051;53.464;49.532;2023-02-17T15:34:43;-2.87;77.01
67131;HTU21D;54051;53.464;49.532;2023-02-17T15:37:10;-2.78;76.94
67131;HTU21D;54051;53.464;49.532;2023-02-17T15:39:36;-2.73;76.81
67131;HTU21D;54051;53.464;49.532;2023-02-17T15:42:06;-2.75;76.41
67131;HTU21D;54051;53.464;49.532;2023-02-17T15:44:40;-2.79;76.72
67131;HTU21D;54051;53.464;49.532;2023-02-17T15:47:10;-2.73;76.95
67131;HTU21D;54051;53.464;49.532;2023-02-17T15:49:37;-2.72;76.98
67131;HTU21D;54051;53.464;49.532;2023-02-17T15:52:03;-2.69;76.53
67131;HTU21D;54051;53.464;49.532;2023-02-17T15:54:29;-2.66;76.82
67131;HTU21D;54051;53.464;49.532;2023-02-17T15:56:55;-2.60;76.30
67131;HTU21D;54051;53.464;49.532;2023-02-17T15:59:22;-2.74;76.73
67131;HTU21D;54051;53.464;49.532;2023-02-17T16:01:49;-2.69;76.73
67131;HTU21D;54051;53.464;49.532;2023-02-17T16:04:16;-2.67;76.41
67131;HTU21D;54051;53.464;49.532;2023-02-17T16:06:42;-2.71;76.35
67131;HTU21D;54051;53.464;49.532;2023-02-17T16:09:09;-2.67;76.97
67131;HTU21D;54051;53.464;49.532;2023-02-17T16:14:32;-2.63;76.93
67131;HTU21D;54051;53.464;49.532;2023-02-17T16:16:59;-2.71;76.40
67131;HTU21D;54051;53.464;49.532;2023-02-17T16:19:25;-2.69;76.97
67131;HTU21D;54051;53.464;49.532;2023-02-17T16:21:53;-2.64;76.71
67131;HTU21D;54051;53.464;49.532;2023-02-17T16:24:19;-2.67;76.86
67131;HTU21D;54051;53.464;49.532;2023-02-17T16:26:46;-2.72;76.73
67131;HTU21D;54051;53.464;49.532;2023-02-17T16:29:16;-2.73;76.66
67131;HTU21D;54051;53.464;49.532;2023-02-17T16:31:43;-2.73;77.10
67131;HTU21D;54051;53.464;49.532;2023-02-17T16:34:13;-2.71;76.70
67131;HTU21D;54051;53.464;49.532;2023-02-17T16:36:40;-2.75;76.62
67131;HTU21D;54051;53.464;49.532;2023-02-17T16:39:09;-2.79;76.72
67131;HTU21D;54051;53.464;49.532;2023-02-17T16:41:36;-2.73;77.07
67131;HTU21D;54051;53.464;49.532;2023-02-17T16:44:03;-2.75;76.66
67131;HTU21D;54051;53.464;49.532;2023-02-17T16:46:30;-2.77;76.49
67131;HTU21D;54051;53.464;49.532;2023-02-17T16:48:57;-2.73;76.62
67131;HTU21D;54051;53.464;49.532;2023-02-17T16:51:43;-2.73;76.57
67131;HTU21D;54051;53.464;49.532;2023-02-17T16:54:10;-2.76;76.31
67131;HTU21D;54051;53.464;49.532;2023-02-17T16:56:42;-2.77;76.50
67131;HTU21D;54051;53.464;49.532;2023-02-17T16:59:13;-2.80;76.88
67131;HTU21D;54051;53.464;49.532;2023-02-17T17:01:40;-2.75;76.73
67131;HTU21D;54051;53.464;49.532;2023-02-17T17:04:06;-2.77;76.92
67131;HTU21D;54051;53.464;49.532;2023-02-17T17:06:33;-2.83;77.16
67131;HTU21D;54051;53.464;49.532;2023-02-17T17:08:59;-2.92;77.79
67131;HTU21D;54051;53.464;49.532;2023-02-17T17:11:27;-2.93;77.58
67131;HTU21D;54051;53.464;49.532;2023-02-17T17:13:54;-3.00;77.18
67131;HTU21D;54051;53.464;49.532;2023-02-17T17:16:30;-3.04;77.11
67131;HTU21D;54051;53.464;49.532;2023-02-17T17:18:58;-3.07;76.76
67131;HTU21D;54051;53.464;49.532;2023-02-17T17:21:25;-3.20;76.84
67131;HTU21D;54051;53.464;49.532;2023-02-17T17:23:51;-3.34;76.89